createdAt,value
2019-03-18T00:02:20.157Z,5.10
2019-03-18T00:04:50.495Z,5.10
2019-03-18T00:07:20.917Z,5.10
2019-03-18T00:09:51.288Z,5.10
2019-03-18T00:12:21.658Z,5.10
2019-03-18T00:15:00.667Z,5.20
2019-03-18T00:17:24.122Z,5.10
2019-03-18T00:19:54.475Z,5.10
2019-03-18T00:22:25.238Z,5.10
2019-03-18T00:24:55.583Z,5.10
2019-03-18T00:27:26.062Z,5.10
2019-03-18T00:29:56.401Z,5.10
2019-03-18T00:32:26.798Z,5.10
2019-03-18T00:34:57.174Z,5.10
2019-03-18T00:37:27.860Z,5.10
2019-03-18T00:39:58.230Z,5.20
2019-03-18T00:42:28.573Z,5.10
2019-03-18T00:44:59.332Z,5.10
2019-03-18T00:47:29.681Z,5.10
2019-03-18T00:50:00.082Z,5.00
2019-03-18T00:52:30.445Z,5.10
2019-03-18T00:55:01.222Z,5.00
2019-03-18T00:57:31.634Z,5.00
2019-03-18T01:00:02.009Z,5.00
2019-03-18T01:02:32.628Z,5.00
2019-03-18T01:05:03.099Z,5.00
2019-03-18T01:07:33.454Z,4.90
2019-03-18T01:10:03.846Z,4.90
2019-03-18T01:12:34.205Z,4.90
2019-03-18T01:15:05.253Z,4.90
2019-03-18T01:17:35.697Z,4.90
2019-03-18T01:20:06.836Z,4.90
2019-03-18T01:22:37.316Z,4.90
2019-03-18T01:25:26.709Z,4.80
2019-03-18T01:27:57.659Z,4.80
2019-03-18T01:30:27.994Z,4.80
2019-03-18T01:32:58.397Z,4.80
2019-03-18T01:35:28.828Z,4.80
2019-03-18T01:37:59.177Z,4.80
2019-03-18T01:40:29.534Z,4.80
2019-03-18T01:43:00.902Z,4.80
2019-03-18T01:45:40.171Z,4.70
2019-03-18T01:48:03.573Z,4.70
2019-03-18T01:50:33.927Z,4.70
2019-03-18T01:53:04.471Z,4.70
2019-03-18T01:55:34.812Z,4.70
2019-03-18T01:58:05.549Z,4.70
2019-03-18T02:00:36.298Z,4.70
2019-03-18T02:03:06.693Z,4.70
2019-03-18T02:05:37.033Z,4.70
2019-03-18T02:08:07.418Z,4.70
2019-03-18T02:10:37.758Z,4.60
2019-03-18T02:13:08.145Z,4.60
2019-03-18T02:15:38.598Z,4.60
2019-03-18T02:18:09.080Z,4.60
2019-03-18T02:20:39.414Z,4.60
2019-03-18T02:23:09.799Z,4.70
2019-03-18T02:25:40.162Z,4.60
2019-03-18T02:28:10.516Z,4.60
2019-03-18T02:30:41.215Z,4.60
2019-03-18T02:33:11.543Z,4.60
2019-03-18T02:35:41.902Z,4.60
2019-03-18T02:38:12.240Z,4.60
2019-03-18T02:40:42.619Z,4.50
2019-03-18T02:43:12.941Z,4.60
2019-03-18T02:45:43.395Z,4.50
2019-03-18T02:48:13.726Z,4.50
2019-03-18T02:50:44.551Z,4.50
2019-03-18T02:53:15.225Z,4.50
2019-03-18T02:55:46.086Z,4.50
2019-03-18T02:58:16.448Z,4.50
2019-03-18T03:00:46.807Z,4.50
2019-03-18T03:03:17.186Z,4.50
2019-03-18T03:05:47.914Z,4.50
2019-03-18T03:08:18.650Z,4.50
2019-03-18T03:10:48.986Z,4.50
2019-03-18T03:13:19.344Z,4.50
2019-03-18T03:15:50.790Z,4.50
2019-03-18T03:18:21.949Z,4.40
2019-03-18T03:20:52.308Z,4.40
2019-03-18T03:23:22.666Z,4.40
2019-03-18T03:25:54.814Z,4.40
2019-03-18T03:28:25.975Z,4.40
2019-03-18T03:30:56.307Z,4.50
2019-03-18T03:33:28.944Z,4.40
2019-03-18T03:35:59.302Z,4.40
2019-03-18T03:38:29.662Z,4.40
2019-03-18T03:41:00.029Z,4.40
2019-03-18T03:43:30.368Z,4.40
2019-03-18T03:46:01.090Z,4.40
2019-03-18T03:48:31.431Z,4.40
2019-03-18T03:51:02.271Z,4.30
2019-03-18T03:53:32.619Z,4.30
2019-03-18T03:56:03.007Z,4.30
2019-03-18T03:58:33.698Z,4.30
2019-03-18T04:01:04.635Z,4.30
2019-03-18T04:03:38.747Z,4.30
2019-03-18T04:06:18.823Z,4.30
2019-03-18T04:08:52.117Z,4.30
2019-03-18T04:11:22.494Z,4.20
2019-03-18T04:13:52.835Z,4.20
2019-03-18T04:16:23.373Z,4.20
2019-03-18T04:18:53.698Z,4.20
2019-03-18T04:21:24.178Z,4.20
2019-03-18T04:23:54.527Z,4.20
2019-03-18T04:26:25.396Z,4.20
2019-03-18T04:28:55.719Z,4.20
2019-03-18T04:31:26.120Z,4.20
2019-03-18T04:33:56.446Z,4.30
2019-03-18T04:36:26.930Z,4.30
2019-03-18T04:38:57.254Z,4.40
2019-03-18T04:41:27.625Z,4.40
2019-03-18T04:43:58.386Z,4.40
2019-03-18T04:46:28.861Z,4.40
2019-03-18T04:48:59.419Z,4.50
2019-03-18T04:51:29.798Z,4.50
2019-03-18T04:54:00.155Z,4.50
2019-03-18T04:56:30.496Z,4.50
2019-03-18T04:59:00.881Z,4.50
2019-03-18T05:01:31.234Z,4.60
2019-03-18T05:04:01.603Z,4.60
2019-03-18T05:06:31.941Z,4.60
2019-03-18T05:09:02.321Z,4.60
2019-03-18T05:11:34.188Z,4.70
2019-03-18T05:14:04.690Z,4.70
2019-03-18T05:16:35.065Z,4.70
2019-03-18T05:19:05.441Z,4.80
2019-03-18T05:21:36.096Z,4.80
2019-03-18T05:24:06.454Z,4.80
2019-03-18T05:26:38.334Z,4.80
2019-03-18T05:29:09.087Z,4.80
2019-03-18T05:31:39.438Z,4.80
2019-03-18T05:34:09.821Z,4.90
2019-03-18T05:36:40.178Z,4.90
2019-03-18T05:39:11.339Z,4.90
2019-03-18T05:41:42.003Z,4.90
2019-03-18T05:44:12.429Z,4.90
2019-03-18T05:46:42.782Z,5.00
2019-03-18T05:49:13.186Z,5.00
2019-03-18T05:51:43.544Z,5.00
2019-03-18T05:54:13.998Z,5.10
2019-03-18T05:56:44.361Z,5.10
2019-03-18T05:59:14.750Z,5.10
2019-03-18T06:01:45.126Z,5.10
2019-03-18T06:04:15.473Z,5.20
2019-03-18T06:06:46.181Z,5.20
2019-03-18T06:09:16.519Z,5.20
2019-03-18T06:11:46.987Z,5.20
2019-03-18T06:14:17.759Z,5.30
2019-03-18T06:16:48.097Z,5.20
2019-03-18T06:19:18.894Z,5.20
2019-03-18T06:21:49.570Z,5.30
2019-03-18T06:24:20.146Z,5.30
2019-03-18T06:26:50.925Z,5.30
2019-03-18T06:29:21.773Z,5.40
2019-03-18T06:31:52.113Z,5.40
2019-03-18T06:34:22.518Z,5.50
2019-03-18T06:36:52.902Z,5.50
2019-03-18T06:39:23.278Z,5.50
2019-03-18T06:41:53.635Z,5.50
2019-03-18T06:44:24.110Z,5.60
2019-03-18T06:46:54.453Z,5.60
2019-03-18T06:49:24.862Z,5.60
2019-03-18T06:51:55.196Z,5.60
2019-03-18T06:54:25.578Z,5.60
2019-03-18T06:56:55.937Z,5.60
2019-03-18T06:59:26.330Z,5.70
2019-03-18T07:01:56.691Z,5.70
2019-03-18T07:04:27.550Z,5.80
2019-03-18T07:06:57.915Z,5.80
2019-03-18T07:09:28.446Z,5.80
2019-03-18T07:11:59.129Z,5.80
2019-03-18T07:14:30.089Z,5.90
2019-03-18T07:17:00.809Z,5.90
2019-03-18T07:19:31.235Z,5.80
2019-03-18T07:22:01.546Z,5.90
2019-03-18T07:24:31.927Z,5.90
2019-03-18T07:27:02.289Z,5.90
2019-03-18T07:29:32.655Z,5.90
2019-03-18T07:32:03.040Z,6.00
2019-03-18T07:34:34.577Z,6.00
2019-03-18T07:37:05.994Z,6.10
2019-03-18T07:39:36.365Z,6.10
2019-03-18T07:42:06.697Z,6.10
2019-03-18T07:44:37.081Z,6.10
2019-03-18T07:47:08.589Z,6.20
2019-03-18T07:49:38.966Z,6.20
2019-03-18T07:52:09.414Z,6.20
2019-03-18T07:54:39.813Z,6.10
2019-03-18T07:57:10.582Z,6.20
2019-03-18T07:59:40.917Z,6.20
2019-03-18T08:02:11.307Z,6.20
2019-03-18T08:04:41.659Z,6.30
2019-03-18T08:07:12.038Z,6.30
2019-03-18T08:09:42.713Z,6.30
2019-03-18T08:12:13.214Z,6.40
2019-03-18T08:14:43.598Z,6.40
2019-03-18T08:17:13.962Z,6.60
2019-03-18T08:19:45.022Z,6.90
2019-03-18T08:22:15.370Z,7.20
2019-03-18T08:24:45.749Z,7.20
2019-03-18T08:27:16.113Z,7.30
2019-03-18T08:29:46.477Z,7.50
2019-03-18T08:32:17.238Z,7.60
2019-03-18T08:34:47.658Z,7.70
2019-03-18T08:37:17.990Z,7.70
2019-03-18T08:39:48.400Z,7.70
2019-03-18T08:42:18.750Z,7.70
2019-03-18T08:44:49.173Z,7.50
2019-03-18T08:47:19.542Z,7.50
2019-03-18T08:49:50.097Z,7.60
2019-03-18T08:52:20.436Z,7.60
2019-03-18T08:54:50.823Z,7.60
2019-03-18T08:57:21.203Z,7.60
2019-03-18T08:59:51.586Z,7.60
2019-03-18T09:02:21.967Z,7.50
2019-03-18T09:04:52.318Z,7.40
2019-03-18T09:07:22.703Z,7.30
2019-03-18T09:09:53.046Z,7.40
2019-03-18T09:12:23.415Z,7.40
2019-03-18T09:14:53.869Z,7.40
2019-03-18T09:17:24.281Z,7.50
2019-03-18T09:19:54.665Z,7.50
2019-03-18T09:22:25.069Z,7.60
2019-03-18T09:24:55.422Z,7.60
2019-03-18T09:27:25.781Z,7.60
2019-03-18T09:29:56.147Z,7.60
2019-03-18T09:32:26.494Z,7.70
2019-03-18T09:34:56.874Z,7.70
2019-03-18T09:37:27.211Z,7.70
2019-03-18T09:39:57.681Z,7.70
2019-03-18T09:42:28.026Z,7.60
2019-03-18T09:44:58.431Z,7.70
2019-03-18T09:47:29.850Z,7.70
2019-03-18T09:50:00.348Z,7.70
2019-03-18T09:52:30.709Z,7.80
2019-03-18T09:55:01.530Z,7.80
2019-03-18T09:57:31.938Z,7.80
2019-03-18T10:00:02.357Z,7.80
2019-03-18T10:02:33.822Z,7.80
2019-03-18T10:05:04.506Z,7.90
2019-03-18T10:07:34.865Z,8.00
2019-03-18T10:10:07.031Z,8.00
2019-03-18T10:12:37.392Z,8.00
2019-03-18T10:15:09.486Z,8.10
2019-03-18T10:17:39.860Z,8.10
2019-03-18T10:20:10.378Z,8.10
2019-03-18T10:22:41.797Z,8.10
2019-03-18T10:25:12.358Z,8.00
2019-03-18T10:27:42.674Z,8.10
2019-03-18T10:30:13.073Z,8.10
2019-03-18T10:32:43.432Z,8.30
2019-03-18T10:35:14.046Z,8.30
2019-03-18T10:37:44.389Z,8.50
2019-03-18T10:40:14.753Z,8.60
2019-03-18T10:42:45.208Z,8.80
2019-03-18T10:45:15.801Z,8.90
2019-03-18T10:47:46.234Z,8.90
2019-03-18T10:50:16.654Z,8.90
2019-03-18T10:52:48.092Z,9.00
2019-03-18T10:55:18.493Z,9.00
2019-03-18T10:57:48.868Z,9.00
2019-03-18T11:00:19.344Z,9.10
2019-03-18T11:02:49.645Z,9.00
2019-03-18T11:05:20.100Z,8.90
2019-03-18T11:07:51.899Z,8.90
2019-03-18T11:10:23.023Z,9.20
2019-03-18T11:12:53.717Z,9.10
2019-03-18T11:15:24.366Z,9.20
2019-03-18T11:17:54.706Z,9.30
2019-03-18T11:20:25.219Z,9.50
2019-03-18T11:22:55.585Z,9.70
2019-03-18T11:25:25.993Z,9.90
2019-03-18T11:27:56.646Z,10.10
2019-03-18T11:30:27.517Z,10.00
2019-03-18T11:32:57.870Z,10.00
2019-03-18T11:35:28.270Z,9.90
2019-03-18T11:37:58.629Z,9.70
2019-03-18T11:40:28.981Z,9.80
2019-03-18T11:42:59.365Z,9.90
2019-03-18T11:45:29.750Z,9.80
2019-03-18T11:48:00.146Z,9.80
2019-03-18T11:50:30.645Z,9.80
2019-03-18T11:53:13.453Z,9.80
2019-03-18T11:55:33.190Z,9.80
2019-03-18T11:58:03.533Z,9.90
2019-03-18T12:00:33.911Z,10.00
2019-03-18T12:03:04.262Z,9.90
2019-03-18T12:05:34.663Z,9.90
2019-03-18T12:08:05.058Z,10.00
2019-03-18T12:10:35.793Z,10.10
2019-03-18T12:13:06.133Z,10.20
2019-03-18T12:15:36.730Z,10.10
2019-03-18T12:18:07.586Z,10.20
2019-03-18T12:20:57.989Z,10.20
2019-03-18T12:23:28.336Z,10.30
2019-03-18T12:25:58.730Z,10.30
2019-03-18T12:28:29.111Z,10.20
2019-03-18T12:30:59.505Z,9.90
2019-03-18T12:33:29.971Z,9.80
2019-03-18T12:36:00.261Z,9.60
2019-03-18T12:38:30.649Z,9.50
2019-03-18T12:41:01.520Z,9.70
2019-03-18T12:43:32.870Z,9.70
2019-03-18T12:46:03.322Z,9.80
2019-03-18T12:48:33.689Z,9.80
2019-03-18T12:51:04.094Z,9.90
2019-03-18T12:53:34.745Z,9.90
2019-03-18T12:56:05.721Z,10.10
2019-03-18T12:58:36.077Z,10.00
2019-03-18T13:01:12.452Z,10.10
2019-03-18T13:03:38.854Z,10.20
2019-03-18T13:06:09.258Z,10.30
2019-03-18T13:08:39.662Z,10.40
2019-03-18T13:11:10.058Z,10.40
2019-03-18T13:13:40.415Z,10.40
2019-03-18T13:16:10.957Z,10.50
2019-03-18T13:18:41.437Z,10.40
2019-03-18T13:21:11.879Z,10.40
2019-03-18T13:23:42.223Z,10.40
2019-03-18T13:26:12.613Z,10.40
2019-03-18T13:28:43.015Z,10.30
2019-03-18T13:31:13.385Z,10.30
2019-03-18T13:33:43.764Z,10.30
2019-03-18T13:36:14.123Z,10.40
2019-03-18T13:38:44.575Z,10.30
2019-03-18T13:41:14.869Z,10.00
2019-03-18T13:43:45.282Z,9.90
2019-03-18T13:46:18.423Z,9.50
2019-03-18T13:48:47.656Z,9.20
2019-03-18T13:51:21.217Z,9.10
2019-03-18T13:53:50.126Z,8.90
2019-03-18T13:56:20.490Z,8.80
2019-03-18T13:58:51.018Z,8.80
2019-03-18T14:01:21.412Z,8.90
2019-03-18T14:03:51.801Z,8.90
2019-03-18T14:06:22.167Z,8.90
2019-03-18T14:08:52.493Z,8.90
2019-03-18T14:11:22.878Z,8.90
2019-03-18T14:13:53.322Z,8.90
2019-03-18T14:16:23.914Z,8.90
2019-03-18T14:18:54.274Z,8.90
2019-03-18T14:21:33.186Z,9.00
2019-03-18T14:23:56.591Z,9.00
2019-03-18T14:26:26.965Z,9.00
2019-03-18T14:28:57.318Z,8.90
2019-03-18T14:31:27.695Z,8.90
2019-03-18T14:33:58.134Z,9.00
2019-03-18T14:36:28.537Z,9.00
2019-03-18T14:38:58.936Z,9.00
2019-03-18T14:41:29.290Z,9.00
2019-03-18T14:43:59.627Z,9.10
2019-03-18T14:46:30.449Z,9.00
2019-03-18T14:49:00.801Z,9.00
2019-03-18T14:51:31.203Z,9.00
2019-03-18T14:54:01.546Z,8.90
2019-03-18T14:56:31.997Z,8.90
2019-03-18T14:59:02.341Z,8.90
2019-03-18T15:01:32.742Z,8.80
2019-03-18T15:04:03.101Z,8.80
2019-03-18T15:06:33.477Z,8.80
2019-03-18T15:09:05.149Z,8.70
2019-03-18T15:11:35.703Z,8.80
2019-03-18T15:14:06.105Z,8.80
2019-03-18T15:16:36.734Z,8.80
2019-03-18T15:19:07.075Z,8.80
2019-03-18T15:21:37.434Z,8.80
2019-03-18T15:24:16.514Z,8.90
2019-03-18T15:26:39.816Z,8.80
2019-03-18T15:29:10.246Z,8.80
2019-03-18T15:31:40.659Z,8.80
2019-03-18T15:34:11.057Z,8.80
2019-03-18T15:36:41.776Z,8.80
2019-03-18T15:39:12.133Z,8.80
2019-03-18T15:41:42.711Z,8.80
2019-03-18T15:44:13.058Z,8.70
2019-03-18T15:46:43.547Z,8.60
2019-03-18T15:49:13.898Z,8.60
2019-03-18T15:51:44.274Z,8.60
2019-03-18T15:54:14.616Z,8.50
2019-03-18T15:56:45.296Z,8.40
2019-03-18T15:59:15.691Z,8.30
2019-03-18T16:01:46.078Z,8.30
2019-03-18T16:04:16.426Z,8.20
2019-03-18T16:06:46.806Z,8.10
2019-03-18T16:09:17.551Z,8.00
2019-03-18T16:11:48.221Z,7.90
2019-03-18T16:14:18.956Z,7.80
2019-03-18T16:17:01.194Z,7.80
2019-03-18T16:19:21.676Z,7.70
2019-03-18T16:21:52.216Z,7.70
2019-03-18T16:24:22.696Z,7.70
2019-03-18T16:26:53.114Z,7.60
2019-03-18T16:29:24.547Z,7.70
2019-03-18T16:31:54.883Z,7.60
2019-03-18T16:34:25.386Z,7.50
2019-03-18T16:36:55.726Z,7.50
2019-03-18T16:39:26.217Z,7.50
2019-03-18T16:41:56.573Z,7.50
2019-03-18T16:44:27.314Z,7.40
2019-03-18T16:46:57.653Z,7.30
2019-03-18T16:49:28.185Z,7.30
2019-03-18T16:51:58.554Z,7.30
2019-03-18T16:54:29.025Z,7.30
2019-03-18T16:56:59.396Z,7.30
2019-03-18T16:59:29.749Z,7.20
2019-03-18T17:02:00.110Z,7.20
2019-03-18T17:04:30.468Z,7.20
2019-03-18T17:07:00.833Z,7.20
2019-03-18T17:09:31.178Z,7.20
2019-03-18T17:12:01.562Z,7.10
2019-03-18T17:14:31.890Z,7.10
2019-03-18T17:17:02.313Z,7.00
2019-03-18T17:19:32.734Z,6.90
2019-03-18T17:22:03.103Z,6.80
2019-03-18T17:24:33.736Z,6.80
2019-03-18T17:27:04.102Z,6.60
2019-03-18T17:29:34.538Z,6.50
2019-03-18T17:32:05.109Z,6.40
2019-03-18T17:34:35.600Z,6.30
2019-03-18T17:37:06.437Z,6.20
2019-03-18T17:39:37.253Z,6.20
2019-03-18T17:42:07.729Z,6.10
2019-03-18T17:44:38.491Z,6.00
2019-03-18T17:47:08.994Z,6.00
2019-03-18T17:49:39.336Z,5.90
2019-03-18T17:52:10.895Z,5.80
2019-03-18T17:54:44.493Z,5.80
2019-03-18T17:57:13.675Z,5.80
2019-03-18T17:59:44.033Z,5.70
2019-03-18T18:02:14.553Z,5.80
2019-03-18T18:04:45.977Z,5.70
2019-03-18T18:07:16.359Z,5.70
2019-03-18T18:09:46.701Z,5.70
2019-03-18T18:12:17.100Z,5.70
2019-03-18T18:14:47.446Z,5.70
2019-03-18T18:17:17.965Z,5.70
2019-03-18T18:19:48.689Z,5.70
2019-03-18T18:22:19.135Z,5.70
2019-03-18T18:24:49.459Z,5.60
2019-03-18T18:27:19.941Z,5.60
2019-03-18T18:29:50.282Z,5.60
2019-03-18T18:32:20.670Z,5.60
2019-03-18T18:34:51.053Z,5.60
2019-03-18T18:37:21.789Z,5.60
2019-03-18T18:39:52.154Z,5.70
2019-03-18T18:42:22.642Z,5.70
2019-03-18T18:44:53.045Z,5.70
2019-03-18T18:47:23.485Z,5.70
2019-03-18T18:49:53.821Z,5.80
2019-03-18T18:52:24.658Z,5.80
2019-03-18T18:54:55.029Z,5.80
2019-03-18T18:57:25.484Z,5.90
2019-03-18T18:59:56.902Z,5.90
2019-03-18T19:02:27.362Z,5.90
2019-03-18T19:04:57.698Z,5.90
2019-03-18T19:07:28.065Z,5.90
2019-03-18T19:09:58.461Z,5.90
2019-03-18T19:12:28.863Z,6.00
2019-03-18T19:14:59.265Z,6.00
2019-03-18T19:17:30.059Z,6.00
2019-03-18T19:20:00.452Z,6.00
2019-03-18T19:22:30.801Z,6.00
2019-03-18T19:25:01.184Z,6.00
2019-03-18T19:27:31.634Z,6.00
2019-03-18T19:30:02.044Z,6.00
2019-03-18T19:32:32.509Z,6.00
2019-03-18T19:35:02.914Z,6.00
2019-03-18T19:37:33.934Z,6.00
2019-03-18T19:40:04.698Z,6.00
2019-03-18T19:42:35.502Z,6.00
2019-03-18T19:45:06.538Z,6.00
2019-03-18T19:47:36.991Z,5.90
2019-03-18T19:50:09.206Z,6.00
2019-03-18T19:52:39.567Z,5.90
2019-03-18T19:55:09.898Z,5.90
2019-03-18T19:57:40.350Z,5.90
2019-03-18T20:00:13.672Z,5.90
2019-03-18T20:02:44.041Z,5.90
2019-03-18T20:05:15.282Z,5.90
2019-03-18T20:07:46.472Z,5.80
2019-03-18T20:10:16.804Z,5.80
2019-03-18T20:12:47.194Z,5.80
2019-03-18T20:15:17.650Z,5.80
2019-03-18T20:17:48.170Z,5.70
2019-03-18T20:20:18.554Z,5.70
2019-03-18T20:22:48.905Z,5.70
2019-03-18T20:25:19.332Z,5.60
2019-03-18T20:27:49.714Z,5.60
2019-03-18T20:30:20.086Z,5.60
2019-03-18T20:32:50.457Z,5.50
2019-03-18T20:35:20.844Z,5.50
2019-03-18T20:37:52.201Z,5.40
2019-03-18T20:40:22.819Z,5.40
2019-03-18T20:42:53.162Z,5.40
2019-03-18T20:45:23.941Z,5.30
2019-03-18T20:47:54.275Z,5.30
2019-03-18T20:50:24.690Z,5.30
2019-03-18T20:52:55.141Z,5.20
2019-03-18T20:55:25.466Z,5.30
2019-03-18T20:57:58.407Z,5.20
2019-03-18T21:00:28.725Z,5.30
2019-03-18T21:02:59.092Z,5.20
2019-03-18T21:05:29.434Z,5.20
2019-03-18T21:08:00.530Z,5.20
2019-03-18T21:10:30.857Z,5.20
2019-03-18T21:13:01.282Z,5.10
2019-03-18T21:15:32.686Z,5.10
2019-03-18T21:18:03.186Z,5.10
2019-03-18T21:20:33.530Z,5.00
2019-03-18T21:23:03.900Z,5.00
2019-03-18T21:25:34.233Z,4.90
2019-03-18T21:28:04.597Z,4.90
2019-03-18T21:30:34.949Z,4.90
2019-03-18T21:33:05.356Z,4.90
2019-03-18T21:35:35.754Z,4.90
2019-03-18T21:38:06.244Z,4.90
2019-03-18T21:40:36.594Z,4.80
2019-03-18T21:43:06.993Z,4.90
2019-03-18T21:45:37.353Z,4.80
2019-03-18T21:48:07.717Z,4.80
2019-03-18T21:50:38.066Z,4.80
2019-03-18T21:53:08.700Z,4.80
2019-03-18T21:55:39.081Z,4.90
2019-03-18T21:58:09.826Z,4.90
2019-03-18T22:00:40.166Z,4.90
2019-03-18T22:03:10.554Z,4.80
2019-03-18T22:05:40.979Z,4.80
2019-03-18T22:08:11.277Z,4.80
2019-03-18T22:10:41.609Z,4.80
2019-03-18T22:13:12.015Z,4.80
2019-03-18T22:15:42.349Z,4.80
2019-03-18T22:18:12.813Z,4.80
2019-03-18T22:20:43.137Z,4.80
2019-03-18T22:23:13.500Z,4.80
2019-03-18T22:25:43.906Z,4.80
2019-03-18T22:28:14.250Z,4.80
2019-03-18T22:30:44.613Z,4.80
2019-03-18T22:33:14.957Z,4.90
2019-03-18T22:35:48.373Z,4.80
2019-03-18T22:38:18.769Z,4.90
2019-03-18T22:40:49.386Z,4.90
2019-03-18T22:43:19.721Z,4.90
2019-03-18T22:45:50.102Z,4.90
2019-03-18T22:48:20.450Z,4.90
2019-03-18T22:50:50.823Z,5.00
2019-03-18T22:53:21.589Z,4.90
2019-03-18T22:55:51.922Z,5.00
2019-03-18T22:58:22.282Z,5.00
2019-03-18T23:01:06.044Z,5.00
2019-03-18T23:03:36.402Z,5.00
2019-03-18T23:06:06.833Z,5.00
2019-03-18T23:08:37.197Z,5.00
2019-03-18T23:11:07.890Z,5.00
2019-03-18T23:13:38.518Z,5.00
2019-03-18T23:16:08.856Z,5.00
2019-03-18T23:18:39.473Z,5.00
2019-03-18T23:21:09.814Z,5.10
2019-03-18T23:23:40.165Z,5.10
2019-03-18T23:26:10.498Z,5.10
2019-03-18T23:28:42.317Z,5.10
2019-03-18T23:31:12.650Z,5.10
2019-03-18T23:33:43.241Z,5.10
2019-03-18T23:36:13.669Z,5.10
2019-03-18T23:38:44.034Z,5.10
2019-03-18T23:41:14.358Z,5.10
2019-03-18T23:43:44.709Z,5.10
2019-03-18T23:46:15.057Z,5.10
2019-03-18T23:48:45.519Z,5.10
2019-03-18T23:51:16.097Z,5.10
2019-03-18T23:53:47.638Z,5.20
2019-03-18T23:56:18.019Z,5.20
2019-03-18T23:58:48.337Z,5.20
